createdAt,value
2019-03-20T00:00:11.375Z,3.60
2019-03-20T00:02:42.491Z,3.20
2019-03-20T00:05:12.163Z,3.37
2019-03-20T00:07:41.670Z,3.55
2019-03-20T00:10:11.461Z,4.00
2019-03-20T00:12:41.261Z,3.80
2019-03-20T00:15:11.476Z,3.87
2019-03-20T00:17:41.053Z,3.70
2019-03-20T00:20:10.977Z,3.90
2019-03-20T00:22:43.022Z,3.40
2019-03-20T00:25:11.770Z,3.98
2019-03-20T00:27:41.422Z,3.77
2019-03-20T00:30:11.990Z,3.42
2019-03-20T00:32:41.499Z,3.35
2019-03-20T00:35:11.140Z,3.65
2019-03-20T00:37:40.645Z,3.83
2019-03-20T00:40:11.206Z,3.35
2019-03-20T00:42:40.795Z,3.35
2019-03-20T00:45:11.273Z,3.60
2019-03-20T00:47:40.782Z,3.70
2019-03-20T00:50:12.751Z,3.53
2019-03-20T00:52:42.254Z,3.83
2019-03-20T00:55:12.018Z,3.10
2019-03-20T00:57:41.608Z,3.67
2019-03-20T01:00:14.469Z,3.70
2019-03-20T01:02:44.020Z,3.45
2019-03-20T01:05:13.685Z,3.60
2019-03-20T01:07:43.528Z,3.80
2019-03-20T01:10:16.075Z,3.30
2019-03-20T01:12:45.648Z,3.92
2019-03-20T01:15:15.621Z,3.75
2019-03-20T01:17:45.280Z,3.30
2019-03-20T01:20:16.334Z,3.93
2019-03-20T01:22:46.009Z,3.27
2019-03-20T01:25:15.682Z,3.47
2019-03-20T01:27:45.192Z,3.00
2019-03-20T01:30:32.172Z,3.00
2019-03-20T01:33:02.807Z,3.62
2019-03-20T01:35:32.324Z,3.20
2019-03-20T01:38:02.907Z,3.42
2019-03-20T01:40:32.405Z,3.50
2019-03-20T01:43:01.997Z,3.50
2019-03-20T01:45:31.503Z,3.40
2019-03-20T01:48:01.032Z,3.47
2019-03-20T01:50:30.534Z,3.17
2019-03-20T01:53:00.044Z,3.22
2019-03-20T01:55:30.514Z,3.42
2019-03-20T01:58:00.012Z,3.70
2019-03-20T02:00:29.606Z,3.75
2019-03-20T02:02:59.114Z,3.20
2019-03-20T02:05:35.950Z,3.92
2019-03-20T02:07:59.821Z,3.40
2019-03-20T02:10:30.289Z,3.00
2019-03-20T02:12:59.799Z,3.55
2019-03-20T02:15:38.063Z,3.00
2019-03-20T02:18:00.576Z,3.63
2019-03-20T02:20:30.088Z,3.12
2019-03-20T02:22:59.586Z,3.80
2019-03-20T02:25:29.103Z,3.70
2019-03-20T02:27:58.601Z,3.52
2019-03-20T02:30:28.119Z,4.05
2019-03-20T02:32:57.653Z,3.30
2019-03-20T02:35:27.169Z,2.80
2019-03-20T02:37:56.738Z,3.37
2019-03-20T02:40:26.203Z,3.77
2019-03-20T02:42:55.702Z,3.58
2019-03-20T02:45:25.210Z,4.20
2019-03-20T02:47:54.698Z,3.77
2019-03-20T02:50:24.225Z,3.83
2019-03-20T02:52:53.702Z,3.80
2019-03-20T02:55:23.217Z,3.80
2019-03-20T02:57:52.704Z,4.08
2019-03-20T03:00:22.595Z,4.42
2019-03-20T03:02:52.167Z,4.50
2019-03-20T03:05:21.676Z,4.10
2019-03-20T03:07:51.167Z,3.50
2019-03-20T03:10:20.757Z,3.87
2019-03-20T03:12:50.273Z,3.90
2019-03-20T03:15:19.788Z,4.50
2019-03-20T03:17:49.289Z,4.20
2019-03-20T03:20:18.795Z,4.37
2019-03-20T03:22:48.298Z,4.90
2019-03-20T03:25:17.804Z,5.00
2019-03-20T03:27:47.297Z,5.28
2019-03-20T03:30:17.162Z,5.50
2019-03-20T03:32:47.098Z,5.00
2019-03-20T03:35:19.494Z,5.75
2019-03-20T03:37:47.926Z,5.10
2019-03-20T03:40:17.586Z,6.47
2019-03-20T03:42:47.168Z,5.50
2019-03-20T03:45:16.762Z,6.08
2019-03-20T03:47:46.272Z,7.62
2019-03-20T03:50:15.791Z,8.08
2019-03-20T03:52:45.282Z,7.70
2019-03-20T03:55:15.116Z,9.40
2019-03-20T03:57:45.139Z,8.60
2019-03-20T04:00:14.901Z,10.32
2019-03-20T04:02:44.400Z,10.98
2019-03-20T04:05:14.416Z,11.28
2019-03-20T04:07:43.894Z,11.08
2019-03-20T04:10:13.872Z,10.93
2019-03-20T04:12:43.373Z,11.60
2019-03-20T04:15:12.941Z,11.18
2019-03-20T04:17:42.473Z,11.85
2019-03-20T04:20:12.677Z,11.55
2019-03-20T04:22:42.201Z,11.90
2019-03-20T04:25:11.801Z,11.68
2019-03-20T04:27:41.439Z,11.55
2019-03-20T04:30:11.901Z,13.28
2019-03-20T04:32:41.477Z,12.10
2019-03-20T04:35:11.287Z,12.30
2019-03-20T04:37:40.890Z,13.33
2019-03-20T04:40:10.581Z,13.70
2019-03-20T04:42:40.098Z,14.45
2019-03-20T04:45:12.479Z,13.55
2019-03-20T04:47:42.382Z,13.33
2019-03-20T04:50:11.977Z,13.05
2019-03-20T04:52:41.504Z,11.95
2019-03-20T04:55:11.884Z,12.73
2019-03-20T04:57:41.388Z,13.22
2019-03-20T05:00:12.934Z,13.70
2019-03-20T05:02:42.445Z,14.83
2019-03-20T05:05:12.021Z,15.10
2019-03-20T05:07:41.554Z,16.07
2019-03-20T05:10:12.073Z,16.97
2019-03-20T05:12:41.585Z,16.40
2019-03-20T05:15:11.335Z,16.73
2019-03-20T05:17:41.914Z,15.90
2019-03-20T05:20:12.990Z,16.50
2019-03-20T05:22:43.486Z,15.50
2019-03-20T05:25:13.056Z,15.50
2019-03-20T05:27:42.747Z,16.55
2019-03-20T05:30:13.070Z,16.17
2019-03-20T05:32:42.595Z,17.10
2019-03-20T05:35:12.171Z,16.62
2019-03-20T05:37:41.727Z,16.25
2019-03-20T05:40:12.107Z,16.73
2019-03-20T05:42:41.710Z,16.80
2019-03-20T05:45:12.739Z,16.25
2019-03-20T05:47:42.247Z,16.67
2019-03-20T05:50:12.502Z,16.23
2019-03-20T05:52:43.072Z,16.87
2019-03-20T05:55:12.773Z,16.97
2019-03-20T05:57:42.390Z,17.57
2019-03-20T06:00:13.324Z,16.35
2019-03-20T06:02:42.841Z,16.60
2019-03-20T06:05:12.538Z,17.30
2019-03-20T06:07:42.139Z,16.90
2019-03-20T06:10:12.510Z,17.65
2019-03-20T06:12:42.198Z,17.30
2019-03-20T06:15:12.273Z,17.60
2019-03-20T06:17:41.876Z,17.10
2019-03-20T06:20:11.564Z,17.48
2019-03-20T06:22:42.149Z,17.42
2019-03-20T06:25:11.727Z,17.40
2019-03-20T06:27:41.250Z,18.15
2019-03-20T06:30:13.809Z,17.52
2019-03-20T06:32:43.402Z,18.37
2019-03-20T06:35:13.069Z,17.80
2019-03-20T06:37:42.645Z,17.67
2019-03-20T06:40:13.590Z,18.90
2019-03-20T06:42:43.097Z,19.45
2019-03-20T06:45:12.947Z,18.70
2019-03-20T06:47:42.471Z,19.73
2019-03-20T06:50:13.796Z,19.53
2019-03-20T06:52:43.385Z,19.15
2019-03-20T06:55:12.984Z,18.65
2019-03-20T06:57:42.494Z,19.20
2019-03-20T07:01:01.422Z,18.00
2019-03-20T07:04:10.784Z,17.32
2019-03-20T07:06:48.516Z,17.87
2019-03-20T07:09:23.303Z,17.90
2019-03-20T07:11:52.817Z,17.60
2019-03-20T07:14:22.322Z,17.98
2019-03-20T07:16:51.833Z,17.07
2019-03-20T07:19:21.355Z,17.62
2019-03-20T07:21:50.873Z,17.42
2019-03-20T07:24:20.384Z,17.10
2019-03-20T07:26:49.908Z,17.65
2019-03-20T07:29:19.415Z,16.70
2019-03-20T07:31:48.920Z,15.68
2019-03-20T07:34:18.436Z,16.55
2019-03-20T07:36:47.983Z,16.23
2019-03-20T07:39:17.508Z,15.63
2019-03-20T07:41:47.012Z,16.25
2019-03-20T07:44:16.520Z,16.93
2019-03-20T07:46:46.041Z,16.73
2019-03-20T07:49:15.552Z,16.75
2019-03-20T07:51:45.066Z,16.30
2019-03-20T07:54:14.585Z,15.30
2019-03-20T07:56:44.102Z,15.63
2019-03-20T07:59:13.617Z,15.28
2019-03-20T08:01:43.126Z,14.53
2019-03-20T08:04:12.642Z,15.05
2019-03-20T08:06:42.147Z,14.07
2019-03-20T08:09:11.659Z,14.50
2019-03-20T08:11:41.173Z,15.10
2019-03-20T08:14:10.690Z,14.10
2019-03-20T08:16:40.205Z,13.85
2019-03-20T08:19:10.694Z,12.88
2019-03-20T08:21:40.206Z,13.30
2019-03-20T08:24:09.730Z,13.08
2019-03-20T08:26:39.253Z,13.80
2019-03-20T08:29:08.813Z,11.70
2019-03-20T08:31:38.341Z,12.53
2019-03-20T08:34:07.874Z,12.77
2019-03-20T08:36:37.399Z,13.40
2019-03-20T08:39:07.386Z,12.53
2019-03-20T08:41:37.064Z,12.78
2019-03-20T08:44:06.589Z,12.20
2019-03-20T08:46:36.104Z,12.30
2019-03-20T08:49:05.632Z,12.30
2019-03-20T08:51:35.151Z,12.68
2019-03-20T08:54:04.671Z,12.93
2019-03-20T08:56:34.193Z,11.80
2019-03-20T08:59:03.796Z,12.00
2019-03-20T09:01:33.317Z,12.93
2019-03-20T09:04:02.838Z,13.80
2019-03-20T09:06:32.359Z,13.10
2019-03-20T09:09:01.883Z,12.82
2019-03-20T09:11:32.869Z,13.62
2019-03-20T09:14:02.395Z,13.30
2019-03-20T09:16:31.917Z,12.58
2019-03-20T09:19:01.426Z,12.70
2019-03-20T09:21:30.939Z,12.70
2019-03-20T09:24:00.440Z,12.75
2019-03-20T09:26:29.941Z,11.57
2019-03-20T09:28:59.462Z,13.70
2019-03-20T09:31:28.973Z,11.95
2019-03-20T09:33:58.553Z,13.08
2019-03-20T09:36:28.138Z,12.37
2019-03-20T09:38:57.639Z,11.93
2019-03-20T09:41:27.171Z,10.53
2019-03-20T09:43:56.699Z,10.18
2019-03-20T09:46:26.203Z,11.08
2019-03-20T09:48:55.720Z,10.25
2019-03-20T09:51:25.240Z,10.30
2019-03-20T09:53:54.762Z,10.30
2019-03-20T09:56:24.268Z,10.40
2019-03-20T09:58:53.862Z,11.35
2019-03-20T10:01:23.373Z,11.63
2019-03-20T10:03:52.899Z,10.43
2019-03-20T10:06:22.452Z,10.60
2019-03-20T10:08:54.359Z,10.23
2019-03-20T10:11:23.226Z,10.63
2019-03-20T10:13:52.768Z,10.78
2019-03-20T10:16:22.273Z,11.28
2019-03-20T10:18:51.783Z,10.55
2019-03-20T10:21:21.294Z,9.43
2019-03-20T10:23:50.807Z,9.20
2019-03-20T10:26:20.323Z,10.40
2019-03-20T10:28:49.846Z,9.68
2019-03-20T10:31:19.380Z,10.13
2019-03-20T10:33:48.882Z,9.48
2019-03-20T10:36:18.384Z,9.60
2019-03-20T10:38:48.806Z,9.85
2019-03-20T10:41:19.449Z,9.73
2019-03-20T10:43:48.989Z,10.28
2019-03-20T10:46:18.520Z,9.55
2019-03-20T10:48:48.016Z,9.88
2019-03-20T10:51:17.539Z,9.68
2019-03-20T10:53:47.041Z,9.95
2019-03-20T10:56:16.560Z,9.67
2019-03-20T10:58:46.072Z,9.63
2019-03-20T11:01:15.593Z,10.55
2019-03-20T11:03:46.187Z,9.90
2019-03-20T11:06:15.700Z,10.40
2019-03-20T11:08:45.206Z,10.55
2019-03-20T11:11:26.314Z,9.95
2019-03-20T11:13:45.927Z,10.55
2019-03-20T11:16:15.426Z,11.70
2019-03-20T11:18:44.937Z,12.78
2019-03-20T11:21:14.462Z,11.43
2019-03-20T11:23:43.980Z,12.28
2019-03-20T11:26:13.495Z,11.25
2019-03-20T11:28:43.002Z,11.57
2019-03-20T11:31:12.515Z,10.72
2019-03-20T11:33:42.094Z,12.30
2019-03-20T11:36:11.630Z,12.75
2019-03-20T11:38:41.148Z,11.70
2019-03-20T11:41:10.671Z,11.83
2019-03-20T11:43:40.189Z,11.68
2019-03-20T11:46:09.711Z,12.18
2019-03-20T11:48:39.213Z,11.70
2019-03-20T11:51:08.731Z,11.70
2019-03-20T11:53:38.247Z,11.25
2019-03-20T11:56:07.771Z,10.35
2019-03-20T11:58:37.287Z,13.03
2019-03-20T12:01:06.808Z,14.90
2019-03-20T12:03:36.347Z,13.75
2019-03-20T12:06:05.960Z,13.00
2019-03-20T12:08:35.492Z,12.50
2019-03-20T12:11:05.107Z,11.33
2019-03-20T12:13:34.656Z,11.63
2019-03-20T12:16:04.289Z,11.35
2019-03-20T12:18:33.795Z,11.65
2019-03-20T12:21:04.201Z,10.65
2019-03-20T12:23:33.940Z,11.47
2019-03-20T12:26:03.517Z,11.33
2019-03-20T12:28:34.000Z,10.50
2019-03-20T12:31:03.526Z,11.40
2019-03-20T12:33:33.049Z,10.17
2019-03-20T12:36:02.562Z,9.60
2019-03-20T12:38:32.090Z,9.70
2019-03-20T12:41:01.616Z,10.85
2019-03-20T12:43:32.110Z,9.95
2019-03-20T12:46:04.558Z,9.40
2019-03-20T12:48:34.462Z,9.15
2019-03-20T12:51:04.001Z,9.30
2019-03-20T12:53:33.592Z,10.10
2019-03-20T12:56:03.117Z,9.10
2019-03-20T12:58:33.592Z,9.20
2019-03-20T13:01:03.126Z,9.00
2019-03-20T13:03:32.691Z,8.90
2019-03-20T13:06:02.222Z,9.70
2019-03-20T13:08:31.831Z,9.47
2019-03-20T13:11:01.363Z,9.27
2019-03-20T13:13:30.885Z,9.20
2019-03-20T13:16:00.443Z,8.90
2019-03-20T13:18:29.964Z,8.95
2019-03-20T13:20:59.498Z,9.48
2019-03-20T13:23:30.986Z,8.30
2019-03-20T13:26:00.911Z,9.20
2019-03-20T13:28:30.583Z,8.50
2019-03-20T13:31:03.472Z,9.10
2019-03-20T13:33:33.022Z,9.50
2019-03-20T13:36:02.646Z,8.53
2019-03-20T13:38:32.171Z,9.47
2019-03-20T13:41:01.695Z,9.30
2019-03-20T13:43:31.211Z,9.08
2019-03-20T13:46:00.743Z,9.33
2019-03-20T13:48:30.276Z,9.10
2019-03-20T13:50:59.830Z,8.93
2019-03-20T13:53:29.365Z,9.58
2019-03-20T13:55:58.902Z,9.03
2019-03-20T13:58:28.511Z,9.33
2019-03-20T14:00:58.069Z,8.95
2019-03-20T14:03:27.630Z,9.50
2019-03-20T14:05:57.171Z,8.40
2019-03-20T14:08:26.718Z,8.60
2019-03-20T14:10:56.223Z,9.30
2019-03-20T14:13:25.746Z,8.20
2019-03-20T14:15:55.252Z,8.03
2019-03-20T14:18:24.778Z,7.60
2019-03-20T14:20:54.331Z,7.87
2019-03-20T14:23:23.886Z,7.30
2019-03-20T14:25:53.432Z,8.30
2019-03-20T14:28:22.966Z,7.80
2019-03-20T14:30:52.490Z,8.10
2019-03-20T14:33:23.026Z,8.60
2019-03-20T14:35:52.539Z,8.93
2019-03-20T14:38:22.069Z,8.80
2019-03-20T14:40:51.582Z,8.10
2019-03-20T14:43:21.103Z,8.00
2019-03-20T14:45:50.642Z,7.47
2019-03-20T14:48:20.179Z,7.35
2019-03-20T14:50:49.684Z,7.70
2019-03-20T14:53:19.239Z,7.28
2019-03-20T14:55:48.773Z,7.20
2019-03-20T14:58:18.293Z,7.35
2019-03-20T15:00:47.819Z,8.03
2019-03-20T15:03:17.369Z,7.30
2019-03-20T15:05:47.917Z,7.93
2019-03-20T15:08:17.437Z,8.10
2019-03-20T15:10:46.976Z,8.18
2019-03-20T15:13:16.545Z,8.25
2019-03-20T15:15:55.559Z,8.43
2019-03-20T15:18:26.085Z,7.83
2019-03-20T15:20:55.662Z,8.08
2019-03-20T15:23:25.200Z,8.50
2019-03-20T15:25:54.741Z,8.40
2019-03-20T15:28:24.272Z,8.68
2019-03-20T15:30:53.780Z,9.57
2019-03-20T15:33:23.560Z,9.30
2019-03-20T15:35:53.082Z,9.00
2019-03-20T15:38:22.616Z,9.70
2019-03-20T15:40:56.131Z,10.30
2019-03-20T15:43:23.511Z,10.03
2019-03-20T15:45:53.091Z,9.70
2019-03-20T15:48:22.662Z,9.65
2019-03-20T15:50:52.295Z,9.23
2019-03-20T15:53:21.841Z,8.95
2019-03-20T15:55:51.383Z,9.00
2019-03-20T15:58:21.052Z,9.10
2019-03-20T16:00:50.613Z,10.28
2019-03-20T16:03:20.912Z,10.10
2019-03-20T16:05:50.453Z,11.73
2019-03-20T16:08:20.011Z,9.70
2019-03-20T16:10:49.520Z,8.67
2019-03-20T16:13:19.086Z,10.93
2019-03-20T16:15:48.639Z,9.60
2019-03-20T16:18:19.236Z,9.30
2019-03-20T16:20:48.776Z,9.70
2019-03-20T16:23:18.300Z,9.80
2019-03-20T16:25:47.860Z,10.50
2019-03-20T16:28:17.406Z,12.80
2019-03-20T16:30:46.938Z,12.10
2019-03-20T16:33:16.449Z,10.03
2019-03-20T16:35:45.997Z,11.17
2019-03-20T16:38:15.578Z,10.13
2019-03-20T16:40:46.311Z,8.90
2019-03-20T16:43:15.923Z,9.00
2019-03-20T16:45:45.473Z,8.63
2019-03-20T16:48:15.008Z,8.70
2019-03-20T16:50:44.613Z,7.53
2019-03-20T16:53:14.128Z,8.20
2019-03-20T16:55:43.665Z,8.10
2019-03-20T16:58:13.192Z,7.30
2019-03-20T17:00:42.762Z,7.45
2019-03-20T17:03:12.268Z,7.05
2019-03-20T17:05:41.798Z,6.80
2019-03-20T17:08:12.675Z,7.93
2019-03-20T17:10:42.273Z,8.00
2019-03-20T17:13:11.779Z,6.50
2019-03-20T17:15:41.447Z,6.60
2019-03-20T17:18:11.088Z,6.08
2019-03-20T17:20:40.713Z,6.78
2019-03-20T17:23:10.225Z,6.87
2019-03-20T17:25:39.808Z,6.90
2019-03-20T17:28:09.391Z,6.40
2019-03-20T17:30:38.941Z,6.35
2019-03-20T17:33:08.575Z,6.70
2019-03-20T17:35:38.106Z,7.10
2019-03-20T17:38:07.634Z,8.40
2019-03-20T17:40:38.252Z,9.07
2019-03-20T17:43:07.880Z,7.43
2019-03-20T17:45:37.580Z,8.20
2019-03-20T17:48:07.215Z,7.90
2019-03-20T17:50:36.834Z,6.60
2019-03-20T17:53:06.463Z,6.70
2019-03-20T17:55:36.062Z,7.00
2019-03-20T17:58:05.655Z,6.40
2019-03-20T18:00:40.310Z,7.63
2019-03-20T18:03:09.927Z,7.83
2019-03-20T18:05:39.957Z,8.40
2019-03-20T18:08:09.511Z,7.75
2019-03-20T18:10:39.037Z,7.20
2019-03-20T18:13:08.649Z,7.42
2019-03-20T18:15:38.249Z,7.62
2019-03-20T18:18:08.053Z,8.00
2019-03-20T18:20:37.974Z,14.43
2019-03-20T18:23:08.077Z,27.83
2019-03-20T18:25:37.632Z,22.37
2019-03-20T18:28:07.206Z,14.00
2019-03-20T18:30:38.098Z,13.60
2019-03-20T18:33:08.523Z,14.73
2019-03-20T18:35:38.139Z,15.32
2019-03-20T18:38:08.069Z,10.80
2019-03-20T18:40:37.960Z,7.97
2019-03-20T18:43:07.464Z,7.97
2019-03-20T18:45:36.992Z,7.80
2019-03-20T18:48:06.800Z,8.08
2019-03-20T18:50:36.336Z,8.50
2019-03-20T18:53:05.940Z,9.17
2019-03-20T18:55:35.481Z,9.80
2019-03-20T18:58:05.083Z,8.53
2019-03-20T19:00:34.718Z,8.60
2019-03-20T19:03:05.027Z,9.43
2019-03-20T19:05:37.528Z,8.90
2019-03-20T19:08:07.145Z,9.35
2019-03-20T19:10:36.691Z,9.05
2019-03-20T19:13:06.295Z,9.30
2019-03-20T19:15:35.818Z,8.60
2019-03-20T19:18:05.517Z,9.30
2019-03-20T19:20:35.071Z,8.87
2019-03-20T19:23:04.743Z,8.70
2019-03-20T19:25:34.259Z,8.98
2019-03-20T19:28:03.883Z,10.40
2019-03-20T19:30:33.438Z,9.10
2019-03-20T19:33:02.979Z,9.37
2019-03-20T19:35:32.505Z,9.60
2019-03-20T19:38:02.066Z,11.50
2019-03-20T19:40:31.833Z,10.50
2019-03-20T19:43:01.388Z,9.90
2019-03-20T19:45:30.906Z,10.20
2019-03-20T19:48:00.489Z,10.10
2019-03-20T19:50:30.026Z,10.70
2019-03-20T19:52:59.591Z,10.60
2019-03-20T19:55:29.125Z,11.30
2019-03-20T19:57:58.667Z,10.75
2019-03-20T20:00:28.285Z,10.53
2019-03-20T20:02:57.839Z,11.13
2019-03-20T20:05:27.390Z,10.77
2019-03-20T20:07:57.012Z,11.03
2019-03-20T20:10:26.532Z,10.78
2019-03-20T20:12:56.070Z,9.90
2019-03-20T20:15:25.631Z,10.93
2019-03-20T20:17:55.271Z,11.40
2019-03-20T20:20:24.887Z,11.18
2019-03-20T20:22:54.438Z,11.30
2019-03-20T20:25:23.979Z,11.67
2019-03-20T20:27:53.543Z,11.23
2019-03-20T20:30:23.104Z,11.43
2019-03-20T20:32:52.646Z,11.60
2019-03-20T20:35:22.222Z,12.00
2019-03-20T20:37:51.744Z,12.40
2019-03-20T20:40:21.272Z,12.90
2019-03-20T20:42:50.813Z,12.13
2019-03-20T20:45:20.384Z,12.05
2019-03-20T20:47:49.921Z,13.35
2019-03-20T20:50:19.723Z,12.90
2019-03-20T20:52:49.317Z,12.78
2019-03-20T20:55:18.903Z,13.30
2019-03-20T20:57:48.454Z,12.43
2019-03-20T21:00:19.233Z,12.40
2019-03-20T21:02:48.770Z,14.47
2019-03-20T21:05:18.320Z,13.40
2019-03-20T21:07:48.023Z,13.28
2019-03-20T21:10:17.553Z,13.30
2019-03-20T21:12:56.380Z,13.00
2019-03-20T21:15:20.965Z,14.28
2019-03-20T21:18:09.334Z,14.33
2019-03-20T21:20:39.434Z,13.85
2019-03-20T21:23:39.731Z,14.10
2019-03-20T21:26:09.848Z,12.63
2019-03-20T21:29:33.266Z,13.20
2019-03-20T21:32:16.690Z,13.72
2019-03-20T21:35:36.182Z,13.85
2019-03-20T21:38:05.618Z,14.20
2019-03-20T21:40:59.616Z,14.80
2019-03-20T21:44:04.693Z,14.63
2019-03-20T21:47:00.206Z,14.47
2019-03-20T21:49:30.281Z,14.30
2019-03-20T21:52:00.374Z,14.15
2019-03-20T21:55:06.823Z,14.70
2019-03-20T21:58:19.850Z,15.00
2019-03-20T22:01:31.010Z,15.18
2019-03-20T22:04:01.085Z,15.30
2019-03-20T22:07:07.187Z,15.07
2019-03-20T22:10:15.673Z,17.40
2019-03-20T22:13:06.216Z,17.27
2019-03-20T22:16:14.841Z,19.00
2019-03-20T22:19:05.131Z,19.62
2019-03-20T22:22:10.885Z,19.50
2019-03-20T22:25:12.541Z,21.02
2019-03-20T22:28:08.198Z,21.05
2019-03-20T22:30:38.258Z,21.10
2019-03-20T22:33:44.355Z,20.60
2019-03-20T22:36:18.239Z,21.50
2019-03-20T22:39:33.974Z,22.67
2019-03-20T22:42:25.549Z,20.68
2019-03-20T22:45:36.439Z,21.62
2019-03-20T22:48:29.092Z,23.40
2019-03-20T22:51:13.642Z,22.40
2019-03-20T22:54:29.893Z,23.55
2019-03-20T22:57:15.628Z,23.42
2019-03-20T22:59:45.706Z,24.70
2019-03-20T23:02:43.201Z,25.02
2019-03-20T23:05:13.249Z,24.25
2019-03-20T23:07:43.333Z,24.37
2019-03-20T23:10:14.487Z,24.57
2019-03-20T23:12:46.168Z,24.50
2019-03-20T23:15:17.182Z,24.90
2019-03-20T23:17:47.228Z,23.67
2019-03-20T23:20:20.313Z,23.83
2019-03-20T23:22:50.375Z,24.92
2019-03-20T23:25:20.482Z,24.57
2019-03-20T23:27:50.520Z,25.95
2019-03-20T23:30:23.123Z,26.42
2019-03-20T23:32:53.239Z,25.55
2019-03-20T23:35:23.293Z,27.48
2019-03-20T23:37:53.366Z,25.55
2019-03-20T23:40:23.423Z,25.75
2019-03-20T23:42:53.532Z,25.75
2019-03-20T23:45:23.591Z,25.80
2019-03-20T23:48:03.489Z,24.92
2019-03-20T23:50:33.549Z,25.90
2019-03-20T23:53:03.570Z,25.00
2019-03-20T23:55:33.671Z,25.40
2019-03-20T23:58:03.707Z,27.70
